Time;durP1;ratioP1;P1;durP2;ratioP2;P2;SDS_P1;SDS_P2;PMS_P1;PMS_P2;Temp;Humidity;BMP_temperature;BMP_pressure;BME280_temperature;BME280_humidity;BME280_pressure;Samples;Min_cycle;Max_cycle;Signal;HPM_P1;HPM_P2
2022/12/23 00:01:15;;;;;;;20.73;5.23;;;7.60;99.90;;;;;;5015445;28;20272;-77
2022/12/23 00:03:42;;;;;;;16.77;4.77;;;7.60;99.90;;;;;;5015258;28;20235;-77
2022/12/23 00:06:10;;;;;;;15.97;5.27;;;7.60;99.90;;;;;;5015105;28;20261;-77
2022/12/23 00:08:37;;;;;;;19.10;5.23;;;7.60;99.90;;;;;;5015102;28;20202;-76
2022/12/23 00:11:05;;;;;;;17.90;5.13;;;7.60;99.90;;;;;;5015279;28;20200;-77
2022/12/23 00:16:17;;;;;;;16.10;5.43;;;7.50;99.90;;;;;;5015020;28;20330;-77
2022/12/23 00:18:43;;;;;;;23.70;5.70;;;7.50;99.90;;;;;;5014920;28;20203;-77
2022/12/23 00:21:13;;;;;;;11.73;4.13;;;7.50;99.90;;;;;;5014858;28;20198;-77
2022/12/23 00:23:41;;;;;;;16.23;5.13;;;7.50;99.90;;;;;;5014939;28;20321;-77
2022/12/23 00:26:12;;;;;;;19.40;5.00;;;7.50;99.90;;;;;;5014939;28;20202;-76
2022/12/23 00:28:40;;;;;;;14.77;4.97;;;7.50;99.90;;;;;;5014832;28;20253;-76
2022/12/23 00:31:08;;;;;;;17.83;5.17;;;7.50;99.90;;;;;;5014823;28;20199;-77
2022/12/23 00:33:36;;;;;;;20.40;5.60;;;7.50;99.90;;;;;;5014658;28;20286;-76
2022/12/23 00:36:10;;;;;;;17.33;4.60;;;7.50;99.90;;;;;;5014437;28;20203;-77
2022/12/23 00:44:04;;;;;;;16.57;4.60;;;7.50;99.90;;;;;;5014339;28;20234;-76
2022/12/23 00:46:31;;;;;;;13.67;5.03;;;7.40;99.90;;;;;;5014687;28;20614;-76
2022/12/23 00:51:45;;;;;;;12.60;4.67;;;7.50;99.90;;;;;;4997133;28;20232;-76
2022/12/23 00:54:11;;;;;;;14.37;5.50;;;7.50;99.90;;;;;;5014306;28;20217;-76
2022/12/23 00:56:38;;;;;;;14.60;4.83;;;7.50;99.90;;;;;;5014155;28;20713;-76
2022/12/23 00:59:06;;;;;;;16.70;5.03;;;7.40;99.90;;;;;;5014339;28;20195;-76
2022/12/23 01:07:03;;;;;;;16.37;5.40;;;7.50;99.90;;;;;;5013836;28;20589;-75
2022/12/23 01:09:30;;;;;;;15.07;5.47;;;7.50;99.90;;;;;;5013893;28;20203;-75
2022/12/23 01:11:56;;;;;;;19.40;5.80;;;7.50;99.90;;;;;;5013879;28;20203;-75
2022/12/23 01:14:25;;;;;;;17.63;5.37;;;7.40;99.90;;;;;;5013986;28;20202;-75
2022/12/23 01:16:51;;;;;;;16.23;5.50;;;7.40;99.90;;;;;;5013745;28;20610;-75
2022/12/23 01:19:18;;;;;;;13.80;5.77;;;7.40;99.90;;;;;;5013839;28;20203;-76
2022/12/23 01:21:45;;;;;;;16.37;6.00;;;7.40;99.90;;;;;;5013662;28;20199;-76
2022/12/23 01:24:12;;;;;;;13.10;5.53;;;7.40;99.90;;;;;;5013730;28;20273;-76
2022/12/23 01:26:38;;;;;;;10.03;5.33;;;7.40;99.90;;;;;;5013756;28;20199;-76
2022/12/23 01:29:05;;;;;;;16.30;4.93;;;7.40;99.90;;;;;;5013687;28;20249;-75
2022/12/23 01:31:33;;;;;;;12.70;5.00;;;7.40;99.90;;;;;;4998259;28;20197;-75
2022/12/23 01:33:59;;;;;;;13.27;5.00;;;7.40;99.90;;;;;;4993904;28;20215;-75
2022/12/23 01:36:26;;;;;;;13.77;5.00;;;7.40;99.90;;;;;;4993816;28;20203;-75
2022/12/23 01:38:52;;;;;;;9.77;5.30;;;7.40;99.90;;;;;;4993815;28;20718;-75
2022/12/23 01:44:02;;;;;;;16.73;5.57;;;7.40;99.90;;;;;;4993535;28;20219;-75
2022/12/23 01:46:28;;;;;;;13.93;5.07;;;7.50;99.90;;;;;;4993631;28;20270;-75
2022/12/23 01:48:57;;;;;;;16.77;6.00;;;7.40;99.90;;;;;;4993902;28;20254;-75
2022/12/23 01:51:26;;;;;;;12.63;5.77;;;7.50;99.90;;;;;;4993859;28;20261;-75
2022/12/23 01:53:57;;;;;;;12.60;5.20;;;7.40;99.90;;;;;;4993703;28;20223;-75
2022/12/23 01:56:28;;;;;;;26.33;6.40;;;7.40;99.90;;;;;;4993626;28;20199;-75
2022/12/23 01:58:59;;;;;;;16.33;5.83;;;7.40;99.90;;;;;;4993589;28;20544;-75
2022/12/23 02:04:14;;;;;;;18.47;6.60;;;7.40;99.90;;;;;;4993457;28;20253;-75
2022/12/23 02:09:28;;;;;;;18.03;7.30;;;7.40;99.90;;;;;;4993452;28;20247;-75
2022/12/23 02:12:12;;;;;;;17.93;7.30;;;7.40;99.90;;;;;;4993690;28;20258;-75
2022/12/23 02:17:47;;;;;;;17.90;8.30;;;7.40;99.90;;;;;;4993434;28;20199;-76
2022/12/23 02:20:42;;;;;;;22.73;8.20;;;7.40;99.90;;;;;;4993651;28;20195;-75
2022/12/23 02:23:46;;;;;;;18.53;7.87;;;7.40;99.90;;;;;;4994790;28;20683;-76
2022/12/23 02:26:47;;;;;;;24.87;7.87;;;7.40;99.90;;;;;;4982211;28;20196;-75
2022/12/23 02:29:38;;;;;;;20.00;8.47;;;7.40;99.90;;;;;;4997233;28;20250;-75
2022/12/23 02:32:13;;;;;;;17.00;7.70;;;7.40;99.90;;;;;;4997253;28;20559;-75
2022/12/23 02:34:50;;;;;;;12.70;6.60;;;7.40;99.90;;;;;;4997211;28;20544;-75
2022/12/23 02:37:21;;;;;;;15.50;7.13;;;7.40;99.90;;;;;;4997164;28;20726;-75
2022/12/23 02:39:53;;;;;;;12.80;7.03;;;7.40;99.90;;;;;;4998599;28;20204;-75
2022/12/23 02:42:23;;;;;;;16.33;7.50;;;7.40;99.90;;;;;;4998980;28;20203;-75
2022/12/23 02:44:58;;;;;;;16.13;6.87;;;7.40;99.90;;;;;;4996988;28;20223;-75
2022/12/23 02:47:31;;;;;;;11.53;6.20;;;7.40;99.90;;;;;;4997286;28;20195;-75
2022/12/23 02:50:02;;;;;;;11.20;6.60;;;7.40;99.90;;;;;;4997182;28;20210;-76
2022/12/23 02:52:33;;;;;;;10.20;6.27;;;7.50;99.90;;;;;;4996887;28;20199;-75
2022/12/23 02:55:05;;;;;;;12.13;6.83;;;7.40;99.90;;;;;;4996894;28;20204;-75
2022/12/23 02:57:36;;;;;;;11.33;6.43;;;7.40;99.90;;;;;;5012837;28;20199;-75
2022/12/23 03:00:04;;;;;;;10.57;7.27;;;7.50;99.90;;;;;;5016568;28;20244;-75
2022/12/23 03:02:33;;;;;;;11.17;6.90;;;7.50;99.90;;;;;;5016486;28;20199;-75
2022/12/23 03:05:00;;;;;;;7.60;6.23;;;7.50;99.90;;;;;;5016261;28;20222;-76
2022/12/23 03:07:31;;;;;;;8.77;5.30;;;7.50;99.90;;;;;;5016100;28;20289;-75
2022/12/23 03:10:08;;;;;;;8.10;4.60;;;7.50;99.90;;;;;;5016257;28;20203;-75
2022/12/23 03:12:44;;;;;;;7.17;4.30;;;7.50;99.90;;;;;;5016653;28;20234;-73
2022/12/23 03:15:20;;;;;;;6.93;4.40;;;7.60;99.90;;;;;;5016563;28;20227;-73
2022/12/23 03:18:00;;;;;;;7.73;3.87;;;7.70;99.90;;;;;;5016646;28;20257;-74
2022/12/23 03:20:34;;;;;;;5.50;4.17;;;7.80;99.90;;;;;;5016631;28;20201;-74
2022/12/23 03:23:07;;;;;;;7.30;3.97;;;7.70;99.90;;;;;;5016827;28;20263;-74
2022/12/23 03:25:40;;;;;;;6.43;4.00;;;7.80;99.90;;;;;;5016556;28;20199;-74
2022/12/23 03:28:11;;;;;;;4.90;3.40;;;7.80;99.90;;;;;;5016558;28;20330;-74
2022/12/23 03:30:41;;;;;;;5.77;3.70;;;7.90;99.90;;;;;;5016351;28;20257;-74
2022/12/23 03:33:15;;;;;;;4.27;3.80;;;7.90;99.90;;;;;;5016324;28;20228;-74
2022/12/23 03:35:47;;;;;;;4.23;3.57;;;7.90;99.90;;;;;;5016064;28;20194;-74
2022/12/23 03:38:15;;;;;;;5.80;3.80;;;8.00;99.90;;;;;;5016099;28;20207;-74
2022/12/23 03:40:45;;;;;;;5.03;3.77;;;8.00;99.90;;;;;;5016162;28;20605;-74
2022/12/23 03:43:16;;;;;;;4.27;3.47;;;8.10;99.90;;;;;;5015898;28;20247;-74
2022/12/23 03:45:47;;;;;;;4.30;3.90;;;8.10;99.90;;;;;;5016174;28;20203;-74
2022/12/23 03:48:22;;;;;;;4.43;3.37;;;8.10;99.90;;;;;;5015888;28;20195;-74
2022/12/23 03:50:53;;;;;;;4.43;3.20;;;8.20;99.90;;;;;;5015842;28;20198;-74
2022/12/23 03:53:23;;;;;;;5.70;3.70;;;8.20;99.90;;;;;;5015921;28;20202;-74
2022/12/23 03:55:54;;;;;;;3.77;3.10;;;8.20;99.90;;;;;;5015518;28;20199;-74
2022/12/23 03:58:33;;;;;;;3.70;3.40;;;8.30;99.90;;;;;;5015515;28;20199;-74
2022/12/23 04:01:06;;;;;;;4.33;3.50;;;8.30;99.90;;;;;;5015395;28;20207;-75
2022/12/23 04:03:41;;;;;;;5.13;3.73;;;8.30;99.90;;;;;;5015133;28;20202;-74
2022/12/23 04:06:12;;;;;;;3.80;3.40;;;8.30;99.90;;;;;;5015027;28;20203;-74
2022/12/23 04:08:41;;;;;;;4.50;3.10;;;8.30;99.90;;;;;;5015382;28;20261;-75
2022/12/23 04:11:08;;;;;;;6.07;2.80;;;8.40;99.90;;;;;;5015217;28;20257;-76
2022/12/23 04:13:35;;;;;;;2.53;2.30;;;8.40;99.90;;;;;;5015017;28;20244;-73
2022/12/23 04:16:02;;;;;;;3.47;2.40;;;8.40;99.90;;;;;;5015066;28;20199;-74
2022/12/23 04:18:29;;;;;;;2.47;2.20;;;8.50;99.90;;;;;;5015181;28;20206;-74
2022/12/23 04:20:57;;;;;;;3.83;2.50;;;8.50;99.90;;;;;;5015091;28;20693;-74
2022/12/23 04:23:24;;;;;;;2.50;2.30;;;8.60;99.90;;;;;;5015795;28;20206;-74
2022/12/23 04:25:51;;;;;;;3.87;2.80;;;8.70;99.90;;;;;;5016027;28;20543;-73
2022/12/23 04:28:18;;;;;;;3.03;2.70;;;8.70;99.90;;;;;;5015913;28;20206;-74
2022/12/23 04:30:45;;;;;;;2.80;2.60;;;8.90;99.90;;;;;;5015605;28;20205;-74
2022/12/23 04:33:14;;;;;;;3.83;3.00;;;8.90;99.90;;;;;;5015914;28;20199;-74
2022/12/23 04:35:40;;;;;;;3.70;3.40;;;9.00;99.90;;;;;;5016120;28;20582;-74
2022/12/23 04:38:08;;;;;;;4.80;3.50;;;9.00;99.90;;;;;;5015684;28;20658;-75
2022/12/23 04:40:35;;;;;;;3.53;3.23;;;9.00;99.90;;;;;;5015260;28;20203;-74
2022/12/23 04:43:02;;;;;;;4.13;3.73;;;9.00;99.90;;;;;;5014954;28;20199;-74
2022/12/23 04:45:28;;;;;;;3.80;3.40;;;9.10;99.90;;;;;;5014448;28;20227;-75
2022/12/23 04:47:55;;;;;;;4.50;3.50;;;9.10;99.90;;;;;;5014345;28;20257;-76
2022/12/23 04:50:21;;;;;;;3.87;3.47;;;9.10;99.90;;;;;;5014321;28;20729;-75
2022/12/23 04:52:48;;;;;;;5.00;4.00;;;9.10;99.90;;;;;;5014478;28;20203;-77
2022/12/23 04:55:16;;;;;;;4.70;3.77;;;9.10;99.90;;;;;;5014392;28;20199;-76
2022/12/23 04:57:43;;;;;;;3.60;3.30;;;9.10;99.90;;;;;;5014679;28;20195;-75
2022/12/23 05:00:10;;;;;;;3.97;3.30;;;9.10;99.90;;;;;;5014143;28;20601;-75
2022/12/23 05:02:37;;;;;;;3.90;3.40;;;9.20;99.90;;;;;;5015174;28;20199;-75
2022/12/23 05:05:04;;;;;;;3.13;2.87;;;9.20;99.90;;;;;;5014846;28;20948;-78
2022/12/23 05:07:31;;;;;;;2.93;2.70;;;9.20;99.90;;;;;;5015580;28;20284;-76
2022/12/23 05:10:00;;;;;;;3.20;2.90;;;9.30;99.90;;;;;;5016365;28;20658;-75
2022/12/23 05:12:28;;;;;;;2.70;2.50;;;9.30;99.90;;;;;;5016885;28;20255;-75
2022/12/23 05:14:55;;;;;;;3.20;2.90;;;9.30;99.90;;;;;;5014798;28;20225;-75
2022/12/23 05:17:22;;;;;;;3.00;2.70;;;9.30;99.90;;;;;;5014126;28;20199;-76
2022/12/23 05:19:48;;;;;;;3.47;3.17;;;9.30;99.90;;;;;;5014184;28;20199;-75
2022/12/23 05:22:15;;;;;;;3.70;3.30;;;9.30;99.90;;;;;;5013923;28;20586;-76
2022/12/23 05:24:41;;;;;;;3.83;3.53;;;9.30;99.90;;;;;;5013922;28;20274;-76
2022/12/23 05:27:08;;;;;;;3.77;3.47;;;9.20;99.90;;;;;;5013059;28;20663;-76
2022/12/23 05:29:36;;;;;;;3.33;3.03;;;9.20;99.90;;;;;;5013172;28;20191;-75
2022/12/23 05:32:03;;;;;;;3.63;3.20;;;9.20;99.90;;;;;;5016450;28;20203;-76
2022/12/23 05:34:29;;;;;;;3.20;2.90;;;9.20;99.90;;;;;;5017989;28;20203;-74
2022/12/23 05:36:56;;;;;;;3.63;3.30;;;9.20;99.90;;;;;;5013988;28;20199;-75
2022/12/23 05:39:22;;;;;;;4.10;3.47;;;9.20;99.90;;;;;;5014219;28;20199;-76
2022/12/23 05:41:49;;;;;;;3.40;3.10;;;9.30;99.90;;;;;;5015446;28;20203;-76
2022/12/23 05:44:16;;;;;;;3.87;3.53;;;9.30;99.90;;;;;;5019465;28;20219;-76
2022/12/23 05:46:44;;;;;;;3.57;3.27;;;9.30;99.90;;;;;;5015364;28;20203;-76
2022/12/23 05:49:10;;;;;;;3.60;3.30;;;9.20;99.90;;;;;;5013588;28;20663;-75
2022/12/23 05:51:37;;;;;;;3.63;3.33;;;9.20;99.90;;;;;;5013428;28;20203;-76
2022/12/23 05:54:04;;;;;;;3.87;3.57;;;9.10;99.90;;;;;;5013385;28;20199;-76
2022/12/23 05:56:30;;;;;;;5.47;3.10;;;9.00;99.90;;;;;;5004146;28;20556;-76
2022/12/23 05:58:57;;;;;;;3.33;3.03;;;9.00;99.90;;;;;;4994364;28;20200;-76
2022/12/23 06:01:23;;;;;;;3.07;2.87;;;9.00;99.90;;;;;;4994660;28;20575;-78
2022/12/23 06:03:51;;;;;;;3.50;2.90;;;9.00;99.90;;;;;;4994188;28;20203;-76
2022/12/23 06:06:18;;;;;;;3.30;3.00;;;9.00;99.90;;;;;;4999288;28;21351;-76
2022/12/23 06:08:44;;;;;;;3.50;3.20;;;8.90;99.90;;;;;;5008726;28;20622;-78
2022/12/23 06:11:12;;;;;;;4.20;3.20;;;9.00;99.90;;;;;;5007857;28;20257;-75
2022/12/23 06:13:38;;;;;;;4.47;3.23;;;9.00;99.90;;;;;;5009555;28;20282;-76
2022/12/23 06:16:06;;;;;;;3.50;3.20;;;9.00;99.90;;;;;;5015322;28;20594;-76
2022/12/23 06:18:32;;;;;;;3.57;3.27;;;9.00;99.90;;;;;;5013941;28;20567;-76
2022/12/23 06:21:00;;;;;;;3.90;3.40;;;9.00;99.90;;;;;;5014223;28;20195;-76
2022/12/23 06:23:27;;;;;;;3.97;3.57;;;8.90;99.90;;;;;;5012904;28;20195;-76
2022/12/23 06:25:58;;;;;;;4.03;3.30;;;8.90;99.90;;;;;;5012939;28;20630;-75
2022/12/23 06:28:25;;;;;;;4.70;3.60;;;8.90;99.90;;;;;;5013028;28;20199;-76
2022/12/23 06:30:52;;;;;;;3.77;3.47;;;8.90;99.90;;;;;;5011317;28;20203;-77
2022/12/23 06:33:19;;;;;;;4.77;3.87;;;8.90;99.90;;;;;;5000647;28;20610;-77
2022/12/23 06:35:45;;;;;;;4.60;3.90;;;8.90;99.90;;;;;;5012087;28;20207;-77
2022/12/23 06:38:14;;;;;;;4.53;3.90;;;8.90;99.90;;;;;;5005244;28;20200;-76
2022/12/23 06:40:41;;;;;;;4.60;4.13;;;8.90;99.90;;;;;;5000010;28;20200;-76
2022/12/23 06:43:09;;;;;;;3.70;3.40;;;9.00;99.90;;;;;;4993460;28;20199;-77
2022/12/23 06:45:36;;;;;;;4.03;3.40;;;9.00;99.90;;;;;;4995795;28;20306;-77
2022/12/23 06:48:02;;;;;;;4.40;3.60;;;8.90;99.90;;;;;;5012624;28;20199;-77
2022/12/23 06:50:29;;;;;;;4.00;3.57;;;8.90;99.90;;;;;;5012785;28;20728;-77
2022/12/23 06:52:56;;;;;;;4.73;4.13;;;8.90;99.90;;;;;;5012913;28;20199;-77
2022/12/23 06:55:24;;;;;;;4.60;4.20;;;8.90;99.90;;;;;;4999134;28;20657;-76
2022/12/23 06:57:50;;;;;;;5.77;4.90;;;8.90;99.90;;;;;;4980108;28;21407;-76
2022/12/23 07:00:17;;;;;;;4.77;4.20;;;8.80;99.90;;;;;;4925847;28;20241;-75
2022/12/23 07:02:44;;;;;;;6.00;4.73;;;8.80;99.90;;;;;;4984136;28;20204;-76
2022/12/23 07:05:11;;;;;;;6.77;6.03;;;8.80;99.90;;;;;;4994575;28;20263;-76
2022/12/23 07:07:37;;;;;;;10.77;7.07;;;8.90;99.90;;;;;;5000363;28;20239;-76
2022/12/23 07:10:05;;;;;;;6.97;6.27;;;8.80;99.90;;;;;;4995220;28;20199;-76
2022/12/23 07:12:33;;;;;;;6.53;5.93;;;8.80;99.90;;;;;;5008804;28;20548;-76
2022/12/23 07:14:59;;;;;;;7.77;6.97;;;8.80;99.90;;;;;;4984408;28;20276;-76
2022/12/23 07:17:26;;;;;;;7.70;6.90;;;8.80;99.90;;;;;;4996090;28;20203;-76
2022/12/23 07:19:53;;;;;;;11.87;10.47;;;8.70;99.90;;;;;;4998159;28;20618;-77
2022/12/23 07:22:20;;;;;;;15.87;13.17;;;8.70;99.90;;;;;;5007434;28;20207;-76
2022/12/23 07:24:47;;;;;;;32.20;27.17;;;8.70;99.90;;;;;;4996139;28;20279;-76
2022/12/23 07:27:14;;;;;;;11.70;10.50;;;8.70;99.90;;;;;;5014733;28;20608;-76
2022/12/23 07:29:42;;;;;;;11.07;8.77;;;8.80;99.90;;;;;;5015152;28;20245;-77
2022/12/23 07:32:09;;;;;;;7.63;6.60;;;8.80;99.90;;;;;;5015314;28;20887;-76
2022/12/23 07:34:35;;;;;;;5.70;5.20;;;8.80;99.90;;;;;;5015836;28;20203;-75
2022/12/23 07:37:02;;;;;;;6.47;5.53;;;8.80;99.90;;;;;;5016702;28;20202;-75
2022/12/23 07:39:29;;;;;;;6.63;5.37;;;8.80;99.90;;;;;;5016998;28;20199;-75
2022/12/23 07:41:55;;;;;;;8.00;6.10;;;8.80;99.90;;;;;;5014159;28;20207;-75
2022/12/23 07:44:22;;;;;;;6.60;6.00;;;8.80;99.90;;;;;;5008035;28;20203;-75
2022/12/23 07:46:50;;;;;;;6.83;5.53;;;8.90;99.90;;;;;;5016036;28;20254;-75
2022/12/23 07:49:16;;;;;;;7.20;5.30;;;8.90;99.90;;;;;;5009172;28;20204;-75
2022/12/23 07:51:43;;;;;;;5.80;5.13;;;8.90;99.90;;;;;;4900323;28;20220;-75
2022/12/23 07:54:12;;;;;;;5.13;4.73;;;8.90;99.90;;;;;;4907757;28;20249;-75
2022/12/23 07:56:38;;;;;;;5.40;4.87;;;8.90;99.90;;;;;;4911106;28;20211;-75
2022/12/23 07:59:05;;;;;;;7.53;5.37;;;8.90;99.90;;;;;;4915555;28;20289;-74
2022/12/23 08:01:32;;;;;;;5.87;4.83;;;8.90;99.90;;;;;;4921219;28;20742;-77
2022/12/23 08:04:00;;;;;;;5.43;4.93;;;8.90;99.90;;;;;;4905942;28;20218;-76
2022/12/23 08:06:27;;;;;;;5.80;5.30;;;8.90;99.90;;;;;;4928787;28;20246;-77
2022/12/23 08:08:54;;;;;;;6.17;5.57;;;8.90;99.90;;;;;;4924018;28;20204;-76
2022/12/23 08:11:20;;;;;;;9.13;5.37;;;8.90;99.90;;;;;;4914359;28;22003;-75
2022/12/23 08:13:48;;;;;;;5.30;4.70;;;9.00;99.90;;;;;;4913385;28;20324;-76
2022/12/23 08:16:14;;;;;;;5.07;4.47;;;9.00;99.90;;;;;;4918636;28;20316;-76
2022/12/23 08:18:41;;;;;;;5.80;4.43;;;9.10;99.90;;;;;;4903490;28;20291;-76
2022/12/23 08:21:13;;;;;;;4.87;4.10;;;9.20;99.90;;;;;;4910256;28;20269;-75
2022/12/23 08:23:40;;;;;;;4.87;4.20;;;9.20;99.90;;;;;;4904963;28;20686;-76
2022/12/23 08:26:09;;;;;;;5.43;3.77;;;9.20;99.90;;;;;;4911860;28;20227;-77
2022/12/23 08:28:37;;;;;;;5.13;4.30;;;9.20;99.90;;;;;;4904627;28;20669;-76
2022/12/23 08:31:07;;;;;;;3.70;3.40;;;9.20;99.90;;;;;;4911926;28;20227;-77
2022/12/23 08:33:35;;;;;;;5.00;3.43;;;9.20;99.90;;;;;;4913691;28;20224;-75
2022/12/23 08:36:01;;;;;;;4.97;3.30;;;9.20;99.90;;;;;;4919467;28;20800;-78
2022/12/23 08:38:29;;;;;;;6.20;3.13;;;9.10;99.90;;;;;;4907179;28;20204;-74
2022/12/23 08:40:56;;;;;;;4.03;3.10;;;9.10;99.90;;;;;;4921825;28;20211;-74
2022/12/23 08:43:23;;;;;;;3.87;3.47;;;9.10;99.90;;;;;;4906944;28;20230;-74
2022/12/23 08:45:50;;;;;;;4.23;3.67;;;9.10;99.90;;;;;;4905613;28;23032;-75
2022/12/23 08:48:16;;;;;;;4.03;3.63;;;9.20;99.90;;;;;;4913395;28;20293;-73
2022/12/23 08:50:45;;;;;;;4.17;3.70;;;9.30;99.90;;;;;;4909469;28;20227;-74
2022/12/23 08:53:12;;;;;;;5.33;3.90;;;9.30;99.90;;;;;;4915647;28;20207;-74
2022/12/23 08:55:41;;;;;;;7.17;4.30;;;9.40;99.90;;;;;;4911118;28;20206;-76
2022/12/23 08:58:08;;;;;;;6.97;4.53;;;9.50;99.90;;;;;;4909724;28;20231;-76
2022/12/23 09:00:36;;;;;;;4.90;4.50;;;9.50;99.90;;;;;;4908256;28;20249;-75
2022/12/23 09:03:02;;;;;;;6.70;5.07;;;9.50;99.90;;;;;;4913705;28;20203;-76
2022/12/23 09:05:29;;;;;;;6.90;5.90;;;9.60;99.90;;;;;;4904710;28;20358;-75
2022/12/23 09:07:56;;;;;;;8.17;7.00;;;9.60;99.90;;;;;;4927913;28;20283;-74
2022/12/23 09:10:23;;;;;;;7.13;6.33;;;9.50;99.90;;;;;;4918309;28;20220;-75
2022/12/23 09:12:52;;;;;;;7.40;6.70;;;9.60;99.90;;;;;;4909910;28;22177;-75
2022/12/23 09:15:18;;;;;;;8.90;6.63;;;9.60;99.90;;;;;;4906188;28;21798;-75
2022/12/23 09:17:45;;;;;;;6.43;5.83;;;9.60;99.90;;;;;;4869753;28;20712;-76
2022/12/23 09:20:12;;;;;;;7.90;7.10;;;9.60;99.90;;;;;;4804020;28;20207;-73
2022/12/23 09:22:39;;;;;;;7.00;6.40;;;9.60;99.90;;;;;;4839140;28;20291;-76
2022/12/23 09:25:06;;;;;;;13.57;12.33;;;9.60;99.90;;;;;;4818906;28;20236;-76
2022/12/23 09:27:33;;;;;;;5.93;5.40;;;9.70;99.90;;;;;;4834989;28;20230;-75
2022/12/23 09:30:01;;;;;;;4.30;3.90;;;9.80;99.90;;;;;;4811826;28;22036;-75
2022/12/23 09:32:28;;;;;;;4.40;4.00;;;9.90;99.90;;;;;;4829525;28;22043;-75
2022/12/23 09:34:56;;;;;;;11.67;7.40;;;9.90;99.90;;;;;;4845792;28;20291;-73
2022/12/23 09:37:22;;;;;;;25.57;12.63;;;10.10;99.90;;;;;;4825830;28;20204;-74
2022/12/23 09:39:49;;;;;;;18.60;8.37;;;10.00;99.90;;;;;;4815691;28;21095;-73
2022/12/23 09:42:28;;;;;;;15.80;9.33;;;10.10;99.90;;;;;;4818292;28;22135;-74
2022/12/23 09:45:10;;;;;;;7.37;3.90;;;10.20;99.90;;;;;;4823486;28;20472;-74
2022/12/23 09:47:39;;;;;;;6.07;4.53;;;10.30;99.90;;;;;;4823607;28;20204;-72
2022/12/23 09:50:24;;;;;;;48.53;18.87;;;10.30;99.90;;;;;;4826922;28;20264;-74
2022/12/23 09:53:00;;;;;;;2.50;2.30;;;10.40;99.90;;;;;;4810668;28;20291;-83
2022/12/23 09:55:33;;;;;;;4.60;3.03;;;10.40;99.90;;;;;;4832562;28;22312;-75
2022/12/23 09:58:03;;;;;;;2.63;2.13;;;10.30;99.90;;;;;;4816602;28;21532;-74
2022/12/23 10:00:38;;;;;;;11.37;5.57;;;10.40;99.90;;;;;;4821742;28;21656;-73
2022/12/23 10:03:17;;;;;;;5.83;3.57;;;10.50;99.90;;;;;;4823751;28;20250;-75
2022/12/23 10:05:55;;;;;;;12.70;7.43;;;10.50;99.90;;;;;;4817495;28;20782;-75
2022/12/23 10:08:28;;;;;;;4.53;2.67;;;10.60;99.90;;;;;;4823820;28;20242;-74
2022/12/23 10:11:00;;;;;;;4.30;2.50;;;10.70;99.90;;;;;;4825934;28;20293;-73
2022/12/23 10:13:33;;;;;;;5.80;3.40;;;10.70;99.90;;;;;;4829899;28;20897;-74
2022/12/23 10:16:06;;;;;;;4.37;2.57;;;10.70;99.90;;;;;;4817745;28;20239;-76
2022/12/23 10:18:42;;;;;;;5.60;3.30;;;10.80;99.90;;;;;;4817460;28;20214;-76
2022/12/23 10:21:14;;;;;;;4.50;2.50;;;10.80;99.90;;;;;;4816947;28;20273;-76
2022/12/23 10:23:43;;;;;;;71.33;31.77;;;10.70;99.90;;;;;;4878100;28;20200;-76
2022/12/23 10:26:19;;;;;;;4.40;3.40;;;10.80;99.90;;;;;;4829985;28;20706;-74
2022/12/23 10:28:46;;;;;;;11.73;7.40;;;10.70;99.90;;;;;;4812441;28;20203;-74
2022/12/23 10:31:19;;;;;;;13.70;5.70;;;10.60;99.90;;;;;;4823842;28;20207;-73
2022/12/23 10:33:53;;;;;;;3.30;2.97;;;10.60;99.90;;;;;;4816378;28;20408;-74
2022/12/23 10:36:26;;;;;;;11.43;5.60;;;10.60;99.90;;;;;;4810119;28;21499;-73
2022/12/23 10:38:59;;;;;;;3.10;2.80;;;10.60;99.90;;;;;;4819040;28;20274;-74
2022/12/23 10:41:36;;;;;;;6.07;2.50;;;10.50;99.90;;;;;;4815311;28;20302;-75
2022/12/23 10:44:20;;;;;;;3.17;2.80;;;10.50;99.90;;;;;;4842774;28;20297;-74
2022/12/23 10:46:58;;;;;;;3.73;3.00;;;10.40;99.90;;;;;;4808922;28;21271;-75
2022/12/23 10:49:34;;;;;;;4.23;3.30;;;10.40;99.90;;;;;;4835354;28;22105;-75
2022/12/23 10:52:05;;;;;;;3.00;2.70;;;10.30;99.90;;;;;;4837042;28;20869;-75
2022/12/23 10:54:34;;;;;;;3.47;3.10;;;10.40;99.90;;;;;;4826505;28;20208;-75
2022/12/23 10:57:02;;;;;;;3.73;2.50;;;10.40;99.90;;;;;;4816992;28;20224;-75
2022/12/23 10:59:32;;;;;;;7.97;5.57;;;10.40;99.90;;;;;;4815838;28;20218;-75
2022/12/23 11:02:09;;;;;;;11.17;6.50;;;10.40;99.90;;;;;;4828954;28;20302;-75
2022/12/23 11:04:38;;;;;;;3.23;2.97;;;10.40;99.90;;;;;;4815033;28;20214;-76
2022/12/23 11:07:07;;;;;;;3.87;2.83;;;10.40;99.90;;;;;;4836498;28;20242;-76
2022/12/23 11:09:40;;;;;;;3.70;3.40;;;10.50;99.90;;;;;;4831629;28;20306;-76
2022/12/23 11:12:08;;;;;;;3.57;3.27;;;10.50;99.90;;;;;;4833082;28;20704;-79
2022/12/23 11:14:38;;;;;;;6.33;4.63;;;10.60;99.90;;;;;;4822107;28;20199;-73
2022/12/23 11:17:18;;;;;;;22.13;13.30;;;10.80;99.90;;;;;;4823159;28;20266;-75
2022/12/23 11:19:45;;;;;;;3.73;3.43;;;10.90;99.90;;;;;;4817970;28;20672;-74
2022/12/23 11:22:23;;;;;;;3.90;3.50;;;11.00;99.90;;;;;;4807706;28;20674;-79
2022/12/23 11:24:49;;;;;;;5.23;3.80;;;11.00;99.90;;;;;;4809932;28;20452;-74
2022/12/23 11:27:17;;;;;;;3.97;3.67;;;11.10;99.90;;;;;;4801135;28;20987;-78
2022/12/23 11:29:48;;;;;;;4.23;3.77;;;11.20;99.90;;;;;;4821886;28;20203;-74
2022/12/23 11:32:20;;;;;;;4.30;3.90;;;11.20;99.90;;;;;;4805420;28;20273;-75
2022/12/23 11:34:48;;;;;;;4.30;3.90;;;11.10;99.90;;;;;;4809082;28;22148;-74
2022/12/23 11:37:25;;;;;;;4.77;4.07;;;11.10;99.90;;;;;;4800308;28;20337;-76
2022/12/23 11:39:52;;;;;;;3.87;3.47;;;11.00;99.90;;;;;;4811912;28;20424;-74
2022/12/23 11:42:26;;;;;;;4.93;4.43;;;11.00;99.90;;;;;;4819661;28;20196;-74
2022/12/23 11:44:55;;;;;;;5.10;4.40;;;10.90;99.90;;;;;;4814685;28;20211;-74
2022/12/23 11:47:29;;;;;;;3.77;3.47;;;10.90;99.90;;;;;;4814056;28;20737;-77
2022/12/23 11:49:58;;;;;;;4.87;4.30;;;10.90;99.90;;;;;;4820326;28;20979;-79
2022/12/23 11:52:26;;;;;;;4.03;3.73;;;10.90;99.90;;;;;;4828744;28;20297;-77
2022/12/23 11:54:55;;;;;;;4.10;3.70;;;10.80;99.90;;;;;;4814492;28;20320;-81
2022/12/23 11:57:27;;;;;;;4.90;4.27;;;10.70;99.90;;;;;;4828015;28;20344;-77
2022/12/23 11:59:57;;;;;;;15.40;14.20;;;10.70;99.90;;;;;;4818366;28;20207;-75
2022/12/23 12:02:35;;;;;;;5.80;5.30;;;10.70;99.90;;;;;;4815965;28;20349;-75
2022/12/23 12:05:06;;;;;;;6.40;5.90;;;10.70;99.90;;;;;;4817103;28;22041;-73
2022/12/23 12:07:33;;;;;;;6.77;6.00;;;10.70;99.90;;;;;;4820180;28;20322;-74
2022/12/23 12:10:01;;;;;;;6.70;5.90;;;10.70;99.90;;;;;;4816526;28;20679;-74
2022/12/23 12:12:30;;;;;;;5.67;5.17;;;10.70;99.90;;;;;;4824482;28;20962;-74
2022/12/23 12:14:58;;;;;;;5.00;4.50;;;10.60;99.90;;;;;;4813097;28;22117;-76
2022/12/23 12:17:32;;;;;;;7.37;5.93;;;10.50;99.90;;;;;;4829555;28;21893;-76
2022/12/23 12:20:04;;;;;;;6.20;5.70;;;10.50;99.90;;;;;;4821956;28;21507;-76
2022/12/23 12:22:37;;;;;;;6.17;5.60;;;10.50;99.90;;;;;;4816467;28;20203;-76
2022/12/23 12:25:15;;;;;;;5.40;4.90;;;10.60;99.90;;;;;;4817351;28;20198;-73
2022/12/23 12:27:46;;;;;;;5.70;5.20;;;10.50;99.90;;;;;;4812775;28;20699;-77
2022/12/23 12:30:17;;;;;;;5.70;5.10;;;10.60;99.90;;;;;;4816803;28;20245;-76
2022/12/23 12:32:50;;;;;;;6.10;5.10;;;10.60;99.90;;;;;;4809668;28;20280;-75
2022/12/23 12:35:21;;;;;;;5.00;3.17;;;10.60;99.90;;;;;;4807819;28;20250;-75
2022/12/23 12:37:52;;;;;;;4.97;4.07;;;10.50;99.90;;;;;;4805779;28;23324;-74
2022/12/23 12:40:28;;;;;;;4.93;4.53;;;10.50;99.90;;;;;;4816631;28;20206;-73
2022/12/23 12:42:59;;;;;;;6.20;5.40;;;10.40;99.90;;;;;;4818301;28;20301;-74
2022/12/23 12:45:32;;;;;;;7.37;6.00;;;10.40;99.90;;;;;;4819641;28;22246;-75
2022/12/23 12:48:19;;;;;;;6.83;5.83;;;10.40;99.90;;;;;;4813311;28;21963;-74
2022/12/23 12:50:59;;;;;;;5.53;4.97;;;10.40;99.90;;;;;;4814322;28;20207;-74
2022/12/23 12:53:28;;;;;;;7.10;5.60;;;10.40;99.90;;;;;;4824263;28;20707;-74
2022/12/23 12:55:59;;;;;;;7.47;5.50;;;10.40;99.90;;;;;;4808119;28;20306;-73
2022/12/23 12:58:26;;;;;;;7.53;4.80;;;10.30;99.90;;;;;;4833217;28;21063;-74
2022/12/23 13:01:08;;;;;;;5.70;5.17;;;10.30;99.90;;;;;;4829547;28;20215;-74
2022/12/23 13:04:04;;;;;;;6.23;5.47;;;10.30;99.90;;;;;;4830395;28;20273;-73
2022/12/23 13:06:39;;;;;;;8.07;7.27;;;10.30;99.90;;;;;;4817106;28;20243;-73
2022/12/23 13:09:15;;;;;;;9.00;6.93;;;10.30;99.90;;;;;;4819079;28;20289;-73
2022/12/23 13:11:47;;;;;;;7.00;6.30;;;10.30;99.90;;;;;;4799301;28;20718;-73
2022/12/23 13:14:24;;;;;;;7.27;6.53;;;10.30;99.90;;;;;;4812600;28;20202;-74
2022/12/23 13:16:59;;;;;;;6.27;5.73;;;10.30;99.90;;;;;;4823601;28;20480;-72
2022/12/23 13:19:33;;;;;;;8.63;5.93;;;10.30;99.90;;;;;;4831390;28;20322;-71
2022/12/23 13:22:07;;;;;;;6.17;5.57;;;10.30;99.90;;;;;;4821072;28;21815;-72
2022/12/23 13:24:40;;;;;;;6.30;5.70;;;10.30;99.90;;;;;;4825608;28;20293;-73
2022/12/23 13:27:11;;;;;;;6.20;5.40;;;10.30;99.90;;;;;;4821202;28;20250;-74
2022/12/23 13:29:53;;;;;;;5.77;5.27;;;10.30;99.90;;;;;;4833189;28;20212;-73
2022/12/23 13:32:28;;;;;;;5.73;5.13;;;10.30;99.90;;;;;;4822486;28;20283;-75